Time;durP1;ratioP1;P1;durP2;ratioP2;P2;SDS_P1;SDS_P2;PMS_P1;PMS_P2;Temp;Humidity;BMP_temperature;BMP_pressure;BME280_temperature;BME280_humidity;BME280_pressure;Samples;Min_cycle;Max_cycle;Signal;HPM_P1;HPM_P2
2023/06/26 00:00:15;;;;;;;1.73;0.98;;;;;;;17.77;100.00;99897.31;6129436;23;20005;-88
2023/06/26 00:02:41;;;;;;;0.57;0.57;;;;;;;17.80;100.00;99901.94;6154125;23;20016;-88
2023/06/26 00:05:07;;;;;;;1.40;1.08;;;;;;;17.63;100.00;99874.44;6153303;23;20517;-88
2023/06/26 00:07:36;;;;;;;0.57;0.57;;;;;;;17.76;100.00;99898.59;6105026;23;20344;-88
2023/06/26 00:10:05;;;;;;;3.05;1.63;;;;;;;17.60;100.00;99889.47;6129162;23;20530;-87
2023/06/26 00:12:31;;;;;;;1.15;0.93;;;;;;;17.67;100.00;99888.28;6154012;23;20359;-87
2023/06/26 00:14:57;;;;;;;4.10;1.77;;;;;;;17.40;100.00;99866.97;6130959;23;20013;-87
2023/06/26 00:17:22;;;;;;;3.80;2.08;;;;;;;17.64;100.00;99895.63;6155968;23;20347;-88
2023/06/26 00:19:48;;;;;;;2.55;1.25;;;;;;;17.63;100.00;99896.88;6181905;23;20063;-87
2023/06/26 00:22:14;;;;;;;5.72;1.38;;;;;;;17.61;100.00;99896.63;6131391;23;20017;-87
2023/06/26 00:24:40;;;;;;;1.73;1.17;;;;;;;17.59;100.00;99899.13;6155369;23;20459;-88
2023/06/26 00:27:05;;;;;;;2.55;1.10;;;;;;;17.60;100.00;99902.69;6155139;23;20450;-87
2023/06/26 00:29:31;;;;;;;1.58;1.23;;;;;;;17.47;100.00;99886.16;6131895;23;20029;-87
2023/06/26 00:31:56;;;;;;;1.40;1.08;;;;;;;17.38;100.00;99877.91;6155557;23;20017;-87
2023/06/26 00:34:22;;;;;;;1.23;1.10;;;;;;;17.42;100.00;99872.88;6155326;23;20079;-88
2023/06/26 00:36:48;;;;;;;1.33;1.05;;;;;;;17.46;100.00;99878.25;6106730;23;20005;-88
2023/06/26 00:39:14;;;;;;;1.48;1.38;;;;;;;17.41;100.00;99871.31;6130777;23;20685;-88
2023/06/26 00:41:40;;;;;;;1.48;1.38;;;;;;;17.39;100.00;99862.59;6155564;23;20037;-88
2023/06/26 00:44:06;;;;;;;0.80;0.80;;;;;;;17.51;100.00;99872.72;6155505;23;20068;-88
2023/06/26 00:46:32;;;;;;;2.45;1.67;;;;;;;17.54;100.00;99874.56;6156230;23;20021;-88
2023/06/26 00:48:59;;;;;;;1.35;0.95;;;;;;;17.59;100.00;99882.28;6129856;23;20386;-88
2023/06/26 00:51:26;;;;;;;1.38;1.27;;;;;;;17.41;100.00;99860.09;6131213;23;20025;-87
2023/06/26 00:53:52;;;;;;;1.42;1.33;;;;;;;17.59;100.00;99882.28;6155311;23;20017;-87
2023/06/26 00:56:18;;;;;;;1.58;1.48;;;;;;;17.42;100.00;99856.03;6155717;23;20001;-87
2023/06/26 00:58:44;;;;;;;1.88;1.65;;;;;;;17.46;100.00;99867.81;6131603;23;20028;-88
2023/06/26 01:01:15;;;;;;;3.95;1.65;;;;;;;17.54;100.00;99868.19;6155006;23;20017;-88
2023/06/26 01:03:41;;;;;;;5.07;1.30;;;;;;;17.59;100.00;99882.28;6107343;23;20020;-88
2023/06/26 01:06:11;;;;;;;2.88;1.13;;;;;;;17.58;100.00;99880.78;6154963;23;20083;-88
2023/06/26 01:08:37;;;;;;;1.17;1.08;;;;;;;17.58;100.00;99880.00;6160900;23;20009;-88
2023/06/26 01:11:03;;;;;;;1.60;1.48;;;;;;;17.30;100.00;99845.94;6154690;23;20445;-88
2023/06/26 01:13:30;;;;;;;0.75;0.75;;;;;;;17.48;100.00;99875.72;6156129;23;20005;-88
2023/06/26 01:15:57;;;;;;;0.63;0.63;;;;;;;17.33;100.00;99858.97;6180442;23;20017;-88
2023/06/26 01:18:23;;;;;;;1.40;0.75;;;;;;;17.38;100.00;99871.53;6130912;23;20017;-87
2023/06/26 01:20:49;;;;;;;1.25;1.15;;;;;;;17.43;100.00;99873.63;6155123;23;20005;-88
2023/06/26 01:23:18;;;;;;;2.25;1.17;;;;;;;17.41;100.00;99871.31;6106332;23;20047;-88
2023/06/26 01:26:09;;;;;;;3.50;1.10;;;;;;;17.31;100.00;99878.28;6180210;23;20443;-93
2023/06/26 01:28:38;;;;;;;0.63;0.60;;;;;;;16.94;100.00;99832.38;6184358;23;20009;-96
2023/06/26 01:31:05;;;;;;;1.30;1.25;;;;;;;17.04;100.00;99851.38;6208854;23;20024;-95
2023/06/26 01:33:31;;;;;;;1.98;1.20;;;;;;;16.91;100.00;99830.53;6160102;23;20080;-96
2023/06/26 01:35:57;;;;;;;0.80;0.70;;;;;;;16.81;100.00;99820.69;6160282;23;20013;-95
2023/06/26 01:38:23;;;;;;;1.38;1.13;;;;;;;16.75;100.00;99815.78;6180147;23;20005;-95
2023/06/26 01:40:50;;;;;;;1.73;1.23;;;;;;;16.80;100.00;99825.53;6179682;23;20017;-96
2023/06/26 01:43:31;;;;;;;1.40;1.30;;;;;;;16.78;100.00;99814.81;6179580;23;20017;-96
2023/06/26 01:46:02;;;;;;;1.42;1.33;;;;;;;16.68;100.00;99799.38;6154880;23;20029;-95
2023/06/26 01:48:32;;;;;;;11.15;1.38;;;;;;;16.96;100.00;99835.47;6177852;23;20059;-96
2023/06/26 01:50:59;;;;;;;2.45;1.83;;;;;;;16.71;100.00;99814.44;6151273;23;20009;-96
2023/06/26 01:53:30;;;;;;;1.27;1.10;;;;;;;16.58;100.00;99802.78;6178096;23;20009;-96
2023/06/26 01:56:12;;;;;;;0.63;0.57;;;;;;;16.63;100.00;99816.84;6144496;23;20013;-96
2023/06/26 01:58:43;;;;;;;0.30;0.30;;;;;;;16.70;100.00;99838.84;6193706;23;20028;-95
2023/06/26 02:01:09;;;;;;;1.10;1.05;;;;;;;16.46;100.00;99820.59;6170490;23;20008;-95
2023/06/26 02:03:35;;;;;;;2.78;1.50;;;;;;;16.20;100.00;99795.19;6169199;23;20017;-96
2023/06/26 02:06:01;;;;;;;1.52;0.70;;;;;;;16.10;100.00;99796.53;6207399;23;20005;-96
2023/06/26 02:08:27;;;;;;;1.08;0.98;;;;;;;16.13;100.00;99826.38;6154092;23;20017;-96
2023/06/26 02:10:58;;;;;;;0.90;0.70;;;;;;;15.84;100.00;99794.28;6186016;23;20060;-94
2023/06/26 02:13:24;;;;;;;1.13;0.80;;;;;;;15.85;100.00;99812.59;6212096;23;20016;-96
2023/06/26 02:15:49;;;;;;;1.25;1.15;;;;;;;15.63;100.00;99795.38;6185517;23;20067;-96
2023/06/26 02:18:15;;;;;;;2.40;1.80;;;;;;;15.61;100.00;99809.03;6183857;23;20025;-96
2023/06/26 02:20:43;;;;;;;2.97;1.67;;;;;;;15.50;100.00;99794.06;6206900;23;20020;-96
2023/06/26 02:23:09;;;;;;;1.27;1.17;;;;;;;15.51;100.00;99809.59;6154895;23;20025;-95
2023/06/26 02:25:35;;;;;;;1.65;1.55;;;;;;;15.49;100.00;99812.09;6143382;23;20013;-95
2023/06/26 02:28:01;;;;;;;1.17;1.05;;;;;;;15.39;100.00;99802.97;6145429;23;20247;-96
2023/06/26 02:30:27;;;;;;;0.63;0.63;;;;;;;15.46;100.00;99816.59;6143998;23;20063;-96
2023/06/26 02:32:53;;;;;;;2.60;0.88;;;;;;;15.48;100.00;99822.47;6196206;23;20020;-94
2023/06/26 02:35:19;;;;;;;1.08;0.75;;;;;;;15.74;100.00;99854.31;6180072;23;20043;-96
2023/06/26 02:37:45;;;;;;;1.27;0.93;;;;;;;15.44;100.00;99824.69;6203809;23;20005;-96
2023/06/26 02:40:14;;;;;;;1.40;1.30;;;;;;;15.46;100.00;99811.00;6174706;23;20013;-94
2023/06/26 02:42:41;;;;;;;0.55;0.55;;;;;;;15.37;100.00;99814.63;6198026;23;20459;-96
2023/06/26 02:45:08;;;;;;;2.05;1.25;;;;;;;15.48;100.00;99830.88;6148160;23;20005;-95
2023/06/26 02:47:34;;;;;;;2.08;1.90;;;;;;;15.63;100.00;99865.28;6122311;23;20032;-95
2023/06/26 02:50:00;;;;;;;2.42;1.05;;;;;;;15.47;100.00;99825.75;6121796;23;20502;-96
2023/06/26 02:52:28;;;;;;;0.50;0.50;;;;;;;15.32;100.00;99792.16;6153459;23;20040;-95
2023/06/26 02:54:54;;;;;;;1.85;0.73;;;;;;;15.41;100.00;99818.00;6159032;23;20023;-95
2023/06/26 02:57:20;;;;;;;1.70;1.38;;;;;;;15.37;100.00;99799.88;6211033;23;19993;-96
2023/06/26 02:59:46;;;;;;;1.38;0.98;;;;;;;15.33;100.00;99794.44;6184761;23;20016;-96
2023/06/26 03:02:12;;;;;;;2.08;1.88;;;;;;;15.38;100.00;99795.81;6157094;23;20081;-94
2023/06/26 03:04:45;;;;;;;0.85;0.85;;;;;;;15.33;100.00;99805.63;6159279;23;19993;-96
2023/06/26 03:07:13;;;;;;;1.25;1.15;;;;;;;15.36;100.00;99792.75;6131296;23;20371;-95
2023/06/26 03:09:40;;;;;;;1.10;1.00;;;;;;;15.40;100.00;99798.94;6155759;23;20011;-96
2023/06/26 03:12:07;;;;;;;0.75;0.75;;;;;;;15.31;100.00;99801.78;6180751;23;20037;-95
2023/06/26 03:14:34;;;;;;;1.20;1.13;;;;;;;15.47;100.00;99815.34;6180774;23;20075;-94
2023/06/26 03:17:03;;;;;;;3.30;0.90;;;;;;;15.29;100.00;99790.28;6157660;23;20017;-94
2023/06/26 03:19:30;;;;;;;2.20;1.48;;;;;;;15.42;100.00;99813.19;6156440;23;20055;-95
2023/06/26 03:22:13;;;;;;;0.52;0.45;;;;;;;15.31;100.00;99807.38;6162652;23;20009;-94
2023/06/26 03:24:40;;;;;;;1.80;1.50;;;;;;;15.40;100.00;99810.13;6208656;23;20024;-96
2023/06/26 03:27:06;;;;;;;1.42;1.33;;;;;;;15.28;100.00;99797.16;6209101;23;20033;-95
2023/06/26 03:29:33;;;;;;;0.40;0.40;;;;;;;15.35;100.00;99808.75;6159824;23;20025;-94
2023/06/26 03:31:58;;;;;;;1.25;1.15;;;;;;;15.45;100.00;99814.28;6142459;23;20012;-88
2023/06/26 03:34:24;;;;;;;1.50;1.23;;;;;;;15.72;100.00;99850.47;6153859;23;20021;-88
2023/06/26 03:36:50;;;;;;;3.10;1.20;;;;;;;15.55;100.00;99827.75;6129587;23;20359;-88
2023/06/26 03:39:15;;;;;;;0.63;0.63;;;;;;;15.72;100.00;99840.06;6105321;23;20041;-88
2023/06/26 03:41:41;;;;;;;1.42;1.25;;;;;;;15.78;100.00;99854.91;6104833;23;20025;-88
2023/06/26 03:44:06;;;;;;;0.93;0.82;;;;;;;15.69;100.00;99843.78;6129200;23;20124;-88
2023/06/26 03:46:41;;;;;;;0.98;0.77;;;;;;;15.78;100.00;99843.72;6108893;23;19997;-88
2023/06/26 03:49:06;;;;;;;1.52;1.08;;;;;;;15.92;100.00;99849.84;6128635;23;20020;-88
2023/06/26 03:51:32;;;;;;;1.40;1.30;;;;;;;15.74;100.00;99823.56;6129558;23;20044;-88
2023/06/26 03:53:57;;;;;;;0.75;0.75;;;;;;;15.94;100.00;99841.75;6128853;23;20059;-89
2023/06/26 03:56:23;;;;;;;10.30;1.83;;;;;;;16.03;100.00;99850.06;6153789;23;20023;-88
2023/06/26 03:58:49;;;;;;;2.20;1.85;;;;;;;16.10;100.00;99852.47;6153754;23;20010;-88
2023/06/26 04:01:14;;;;;;;1.48;1.20;;;;;;;16.19;100.00;99858.00;6129323;23;20072;-88
2023/06/26 04:03:40;;;;;;;1.27;0.80;;;;;;;16.09;100.00;99837.75;6153940;23;20013;-88
2023/06/26 04:06:06;;;;;;;1.13;1.02;;;;;;;16.40;100.00;99865.28;6128849;23;20021;-88
2023/06/26 04:08:32;;;;;;;0.93;0.90;;;;;;;16.52;100.00;99874.66;6129285;23;20039;-88
2023/06/26 04:10:58;;;;;;;1.25;1.15;;;;;;;16.40;100.00;99851.28;6153056;23;20009;-88
2023/06/26 04:13:24;;;;;;;0.95;0.85;;;;;;;16.64;100.00;99854.03;6154265;23;20040;-88
2023/06/26 04:15:50;;;;;;;0.63;0.63;;;;;;;16.81;100.00;99865.53;6104844;23;20013;-88
2023/06/26 05:20:41;;;;;;;2.80;1.67;;;;;;;19.56;100.00;99853.63;6151910;23;20036;-87
2023/06/26 05:23:07;;;;;;;0.65;0.63;;;;;;;19.79;100.00;99868.59;6077522;23;20021;-87
2023/06/26 05:25:36;;;;;;;2.75;1.75;;;;;;;19.91;100.00;99873.00;6092171;23;20066;-87
2023/06/26 05:28:01;;;;;;;1.33;1.02;;;;;;;19.95;100.00;99865.06;6122713;23;20010;-87
2023/06/26 05:30:27;;;;;;;1.17;0.95;;;;;;;19.97;100.00;99856.91;6125891;23;20020;-87
2023/06/26 05:32:54;;;;;;;1.13;0.82;;;;;;;20.18;100.00;99872.31;6125509;23;20013;-87
2023/06/26 05:35:23;;;;;;;0.43;0.43;;;;;;;20.41;100.00;99871.16;6133491;23;20044;-95
2023/06/26 05:37:52;;;;;;;1.48;1.38;;;;;;;20.57;100.00;99883.72;6183129;23;20006;-95
2023/06/26 05:40:23;;;;;;;0.77;0.77;;;;;;;20.75;98.92;99862.72;6154744;23;20009;-94
2023/06/26 05:42:51;;;;;;;1.05;0.95;;;;;;;20.90;99.86;99874.53;6157925;23;20017;-95
2023/06/26 05:45:17;;;;;;;1.63;1.52;;;;;;;20.95;94.93;99880.16;6133114;23;20041;-95
2023/06/26 05:47:49;;;;;;;1.27;1.05;;;;;;;20.92;92.62;99838.13;6157628;23;20005;-96
2023/06/26 05:50:17;;;;;;;2.83;1.05;;;;;;;21.09;93.21;99826.84;6133321;23;20036;-95
2023/06/26 05:52:46;;;;;;;1.65;1.17;;;;;;;21.45;91.61;99861.69;6129609;23;20054;-88
2023/06/26 05:55:12;;;;;;;1.77;1.45;;;;;;;21.79;87.24;99885.75;6124817;23;20048;-87
2023/06/26 05:57:40;;;;;;;6.45;1.52;;;;;;;21.76;85.45;99864.16;6150326;23;20014;-87
2023/06/26 06:00:10;;;;;;;3.50;0.68;;;;;;;22.12;85.05;99884.88;6151725;23;20009;-87
2023/06/26 06:02:40;;;;;;;1.98;1.40;;;;;;;22.17;83.02;99858.63;6139403;23;20526;-87
2023/06/26 06:05:06;;;;;;;0.63;0.63;;;;;;;22.37;78.79;99840.53;6127730;23;20283;-87
2023/06/26 06:07:35;;;;;;;3.85;1.83;;;;;;;22.55;81.21;99854.81;6181615;23;20286;-88
2023/06/26 06:10:02;;;;;;;1.05;0.95;;;;;;;23.00;79.47;99889.22;6204703;23;20017;-88
2023/06/26 06:12:27;;;;;;;0.55;0.55;;;;;;;22.98;77.22;99852.19;6181441;23;20013;-88
2023/06/26 06:14:53;;;;;;;0.28;0.28;;;;;;;22.89;77.49;99849.69;6179456;23;20355;-88
2023/06/26 06:17:20;;;;;;;0.98;0.68;;;;;;;23.13;76.84;99858.22;6181582;23;20020;-88
2023/06/26 06:19:45;;;;;;;1.33;1.23;;;;;;;23.62;75.48;99878.09;6179004;23;20021;-88
2023/06/26 06:22:11;;;;;;;0.45;0.45;;;;;;;23.66;69.75;99889.91;6154870;23;20493;-88
2023/06/26 06:24:37;;;;;;;2.72;1.17;;;;;;;23.64;69.85;99881.97;6179670;23;20451;-88
2023/06/26 06:27:03;;;;;;;0.50;0.50;;;;;;;23.64;68.43;99884.78;6154336;23;20013;-88
2023/06/26 06:29:28;;;;;;;0.75;0.75;;;;;;;23.72;67.40;99878.53;6154900;23;20359;-88
2023/06/26 06:31:54;;;;;;;0.55;0.40;;;;;;;23.84;67.96;99868.59;6179253;23;20465;-88
2023/06/26 06:34:19;;;;;;;6.15;1.88;;;;;;;24.05;68.52;99872.47;6179283;23;20009;-88
2023/06/26 06:36:46;;;;;;;0.90;0.88;;;;;;;24.11;66.44;99882.44;6154975;23;20021;-88
2023/06/26 06:39:11;;;;;;;0.47;0.47;;;;;;;23.91;64.03;99840.44;6179830;23;20036;-88
2023/06/26 06:41:37;;;;;;;3.60;1.13;;;;;;;24.03;63.21;99838.22;6179015;23;20465;-88
2023/06/26 06:44:05;;;;;;;1.20;1.10;;;;;;;24.09;62.66;99853.88;6180890;23;20513;-88
2023/06/26 06:46:30;;;;;;;0.60;0.60;;;;;;;24.34;62.98;99853.84;6181928;23;20001;-88
2023/06/26 07:25:18;;;;;;;0.95;0.93;;;;;;;25.86;54.32;99891.28;6179922;23;20421;-90
2023/06/26 07:27:44;;;;;;;1.73;0.98;;;;;;;26.06;55.52;99893.47;6154420;23;20017;-90
2023/06/26 07:30:10;;;;;;;1.63;1.10;;;;;;;26.12;54.61;99890.50;6129706;23;20009;-90
2023/06/26 07:32:37;;;;;;;1.67;1.58;;;;;;;26.20;54.52;99883.66;6129835;23;20017;-90
2023/06/26 07:35:03;;;;;;;1.05;0.95;;;;;;;26.14;54.87;99870.81;6153151;23;20013;-90
2023/06/26 07:37:29;;;;;;;1.30;0.88;;;;;;;26.28;54.80;99895.09;6105881;23;20095;-89
2023/06/26 07:39:55;;;;;;;0.45;0.45;;;;;;;25.92;55.27;99880.59;6129307;23;20457;-90
2023/06/26 07:42:20;;;;;;;1.20;1.10;;;;;;;26.29;55.58;99876.72;6154185;23;20033;-90
2023/06/26 07:44:46;;;;;;;0.93;0.77;;;;;;;26.44;55.16;99865.53;6179213;23;20048;-90
2023/06/26 07:47:12;;;;;;;1.10;0.70;;;;;;;26.79;52.68;99896.25;6155287;23;20104;-90
2023/06/26 07:49:39;;;;;;;1.90;0.85;;;;;;;26.66;51.92;99890.63;6154414;23;20083;-90
2023/06/26 07:52:05;;;;;;;0.85;0.85;;;;;;;26.71;53.22;99872.66;6154703;23;20024;-90
2023/06/26 07:54:30;;;;;;;2.38;1.08;;;;;;;26.99;50.36;99897.63;6129879;23;20063;-89
2023/06/26 07:57:04;;;;;;;1.38;1.27;;;;;;;26.98;52.03;99898.16;6128810;23;20079;-89
2023/06/26 07:59:30;;;;;;;2.40;1.77;;;;;;;27.22;49.89;99892.13;6129880;23;20075;-89
2023/06/26 08:01:57;;;;;;;2.15;1.40;;;;;;;27.10;48.89;99900.19;6144247;23;20025;-90
2023/06/26 08:04:27;;;;;;;0.93;0.68;;;;;;;27.37;48.90;99886.59;6124177;23;20330;-89
2023/06/26 08:06:54;;;;;;;0.55;0.55;;;;;;;27.38;47.25;99875.97;6124477;23;20017;-90
2023/06/26 08:09:22;;;;;;;0.98;0.88;;;;;;;27.55;46.89;99902.69;6124847;23;20021;-90
2023/06/26 08:11:48;;;;;;;3.72;1.75;;;;;;;27.63;46.39;99903.50;6100230;23;20526;-89
2023/06/26 08:14:13;;;;;;;0.93;0.88;;;;;;;27.66;44.42;99896.69;6124784;23;20045;-90
2023/06/26 08:16:40;;;;;;;0.63;0.63;;;;;;;27.64;44.66;99910.75;6100523;23;20010;-89
2023/06/26 08:19:06;;;;;;;1.02;0.95;;;;;;;27.63;45.23;99903.50;6075358;23;19998;-89
2023/06/26 08:21:32;;;;;;;1.92;1.20;;;;;;;27.80;44.18;99905.91;6100579;23;20013;-89
2023/06/26 08:23:57;;;;;;;1.02;1.02;;;;;;;28.04;42.84;99896.16;6062829;23;20021;-90
2023/06/26 08:26:23;;;;;;;1.20;1.10;;;;;;;28.20;42.71;99912.06;6071231;23;20026;-89
2023/06/26 08:28:49;;;;;;;0.82;0.82;;;;;;;28.15;42.49;99885.22;6047172;23;20355;-90
2023/06/26 08:31:15;;;;;;;1.30;0.90;;;;;;;28.44;42.19;99908.72;6095942;23;20016;-89
2023/06/26 08:33:40;;;;;;;0.73;0.65;;;;;;;28.72;42.35;99905.03;6047599;23;20006;-89
2023/06/26 08:36:06;;;;;;;0.80;0.80;;;;;;;28.88;42.48;99894.41;6122972;23;20033;-89
2023/06/26 08:38:32;;;;;;;0.45;0.45;;;;;;;28.73;40.97;99878.81;6073336;23;20034;-90
2023/06/26 08:40:58;;;;;;;1.30;0.57;;;;;;;29.05;40.12;99906.06;6120804;23;20024;-89
2023/06/26 08:43:24;;;;;;;0.98;0.80;;;;;;;28.93;40.60;99899.19;6097027;23;20010;-90
2023/06/26 08:45:51;;;;;;;0.52;0.52;;;;;;;28.85;39.67;99910.59;6049870;23;20028;-89
2023/06/26 08:48:17;;;;;;;1.00;0.73;;;;;;;29.15;39.70;99898.47;6073206;23;20527;-89
2023/06/26 08:50:44;;;;;;;0.70;0.60;;;;;;;29.00;39.59;99902.06;6072883;23;20022;-89
2023/06/26 08:53:26;;;;;;;0.70;0.70;;;;;;;28.83;40.20;99892.53;6049416;23;20006;-89
2023/06/26 08:55:53;;;;;;;0.90;0.90;;;;;;;28.89;39.44;99901.66;6096742;23;20010;-89
2023/06/26 08:58:18;;;;;;;0.77;0.60;;;;;;;29.00;38.74;99899.19;6097185;23;20105;-89
2023/06/26 09:00:44;;;;;;;0.20;0.20;;;;;;;29.13;39.11;99884.00;6097325;23;20144;-89
2023/06/26 09:03:10;;;;;;;0.63;0.63;;;;;;;29.31;39.03;99887.84;6072816;23;20359;-89
2023/06/26 09:05:36;;;;;;;2.40;1.10;;;;;;;29.61;39.23;99890.66;6072507;23;20010;-89
2023/06/26 09:08:02;;;;;;;1.15;0.93;;;;;;;29.88;39.51;99896.75;6097096;23;20093;-89
2023/06/26 09:10:27;;;;;;;1.25;0.98;;;;;;;30.05;39.67;99888.31;6096528;23;20013;-89
2023/06/26 09:12:56;;;;;;;0.47;0.47;;;;;;;30.08;38.34;99895.75;6097348;23;20125;-89
2023/06/26 09:15:21;;;;;;;0.70;0.70;;;;;;;30.00;38.75;99866.41;6096840;23;20130;-89
2023/06/26 09:17:48;;;;;;;1.98;1.15;;;;;;;30.18;38.81;99885.22;6097473;23;20033;-89
2023/06/26 09:20:14;;;;;;;2.28;0.88;;;;;;;30.36;38.71;99891.84;6072739;23;20022;-89
2023/06/26 09:22:42;;;;;;;0.50;0.50;;;;;;;30.58;38.82;99873.81;6049805;23;20358;-89
2023/06/26 09:25:08;;;;;;;1.35;0.75;;;;;;;30.68;37.82;99866.13;6097908;23;20028;-89
2023/06/26 09:27:36;;;;;;;0.70;0.70;;;;;;;31.10;37.72;99886.28;6102146;23;20053;-90
2023/06/26 09:30:03;;;;;;;2.75;1.58;;;;;;;30.61;35.58;99891.94;6100980;23;20447;-89
2023/06/26 09:32:29;;;;;;;0.93;0.93;;;;;;;30.33;35.95;99896.59;6127516;23;20072;-89
2023/06/26 09:35:00;;;;;;;0.63;0.63;;;;;;;30.07;35.72;99871.34;6125343;23;20446;-89
2023/06/26 09:37:25;;;;;;;0.40;0.40;;;;;;;30.34;36.32;99885.91;6103407;23;20088;-89
2023/06/26 09:39:52;;;;;;;0.80;0.80;;;;;;;30.34;37.05;99883.81;6125634;23;20045;-89
2023/06/26 09:42:19;;;;;;;1.05;0.85;;;;;;;30.29;36.22;99876.19;6126316;23;20033;-89
2023/06/26 09:44:45;;;;;;;1.80;0.90;;;;;;;30.31;36.27;99873.53;6125561;23;20024;-90
2023/06/26 09:47:11;;;;;;;3.45;1.00;;;;;;;30.12;36.15;99852.44;6125472;23;20012;-89
2023/06/26 09:49:41;;;;;;;1.48;1.00;;;;;;;30.61;36.54;99875.53;6101128;23;20279;-89
2023/06/26 09:52:06;;;;;;;0.68;0.55;;;;;;;30.80;35.86;99863.56;6101180;23;20010;-89
2023/06/26 09:54:32;;;;;;;1.25;1.02;;;;;;;30.93;36.12;99880.47;6101186;23;20041;-89
2023/06/26 09:57:12;;;;;;;0.85;0.73;;;;;;;30.76;36.55;99861.13;6100987;23;20355;-89
2023/06/26 09:59:39;;;;;;;2.70;1.83;;;;;;;30.60;35.38;99873.22;6077214;23;20459;-89
2023/06/26 10:02:05;;;;;;;0.50;0.50;;;;;;;30.57;36.23;99872.31;6125651;23;20017;-90
2023/06/26 10:04:30;;;;;;;0.95;0.95;;;;;;;30.62;36.73;99864.81;6100352;23;20147;-89
2023/06/26 10:06:56;;;;;;;0.75;0.70;;;;;;;30.92;36.70;99856.03;6103265;23;20028;-89
2023/06/26 10:09:23;;;;;;;0.75;0.68;;;;;;;31.35;35.92;99881.31;6076834;23;20458;-90
2023/06/26 10:12:04;;;;;;;1.45;1.25;;;;;;;31.39;36.14;99875.16;6124992;23;19997;-89
2023/06/26 10:14:36;;;;;;;1.30;1.13;;;;;;;31.27;35.83;99869.16;6101499;23;20093;-89
2023/06/26 10:17:03;;;;;;;;;;;;;;;31.45;35.56;99869.97;6126248;23;20020;-89
2023/06/26 10:19:30;;;;;;;1.95;1.08;;;;;;;31.45;34.89;99876.44;6100523;23;20341;-89
2023/06/26 10:21:57;;;;;;;1.05;0.73;;;;;;;31.21;36.22;99848.59;6101073;23;20446;-90
2023/06/26 10:24:23;;;;;;;0.80;0.80;;;;;;;31.27;34.76;99854.81;6076649;23;20022;-90
2023/06/26 10:27:16;;;;;;;1.98;0.60;;;;;;;31.69;35.19;99863.44;6125060;23;20013;-89
2023/06/26 10:29:44;;;;;;;0.75;0.73;;;;;;;31.66;34.55;99861.00;6150584;23;20077;-90
2023/06/26 10:32:12;;;;;;;2.90;1.40;;;;;;;31.97;34.87;99870.78;6125713;23;20014;-89
2023/06/26 10:34:37;;;;;;;1.70;1.60;;;;;;;31.68;35.20;99849.69;6124981;23;20010;-89
2023/06/26 10:37:04;;;;;;;1.02;0.60;;;;;;;31.85;34.62;99864.03;6125523;23;20028;-89
2023/06/26 10:39:47;;;;;;;1.17;0.85;;;;;;;31.91;34.23;99847.31;6101110;23;20046;-89
2023/06/26 10:42:13;;;;;;;;;;;;;;;31.50;34.09;99863.22;6101258;23;20476;-89
2023/06/26 10:44:45;;;;;;;1.08;0.70;;;;;;;31.38;34.65;99831.41;6151620;23;19975;-90
2023/06/26 10:47:11;;;;;;;1.33;1.23;;;;;;;31.87;34.42;99846.97;6101777;23;20020;-90
2023/06/26 10:49:42;;;;;;;1.10;0.80;;;;;;;31.81;35.16;99841.50;6076713;23;20017;-90
2023/06/26 10:52:07;;;;;;;0.52;0.52;;;;;;;31.97;34.22;99839.22;6125470;23;20100;-89
2023/06/26 10:54:34;;;;;;;1.35;1.25;;;;;;;32.10;33.84;99833.19;6100614;23;20640;-89
2023/06/26 10:57:01;;;;;;;1.23;1.13;;;;;;;32.06;34.20;99840.66;6100110;23;20104;-89
2023/06/26 10:59:28;;;;;;;1.27;0.98;;;;;;;31.58;34.73;99840.25;6100840;23;20022;-89
2023/06/26 11:01:56;;;;;;;0.70;0.70;;;;;;;31.60;35.21;99841.16;6100523;23;20016;-89
2023/06/26 11:04:44;;;;;;;0.90;0.75;;;;;;;31.47;35.00;99835.72;6100176;23;20029;-89
2023/06/26 11:07:24;;;;;;;3.63;2.55;;;;;;;30.60;36.00;99830.28;6077083;23;20022;-89
2023/06/26 11:10:02;;;;;;;0.85;0.80;;;;;;;30.58;37.50;99838.69;6124854;23;20076;-89
2023/06/26 11:12:38;;;;;;;0.52;0.52;;;;;;;30.78;36.78;99846.97;6101450;23;20069;-89
2023/06/26 11:15:10;;;;;;;1.13;1.05;;;;;;;31.08;35.27;99848.88;6124788;23;20017;-89
2023/06/26 11:17:37;;;;;;;1.00;0.82;;;;;;;31.28;35.69;99842.03;6100981;23;20390;-89
2023/06/26 11:20:10;;;;;;;0.85;0.60;;;;;;;31.61;35.44;99845.56;6100224;23;20009;-89
2023/06/26 11:22:37;;;;;;;0.88;0.88;;;;;;;31.16;35.74;99829.53;6101344;23;20017;-89
2023/06/26 11:25:03;;;;;;;0.80;0.80;;;;;;;30.21;35.85;99837.53;6099355;23;20058;-89
2023/06/26 11:27:39;;;;;;;1.38;1.27;;;;;;;30.30;36.69;99834.81;6151737;23;20021;-89
2023/06/26 11:30:06;;;;;;;2.05;0.82;;;;;;;30.78;35.75;99826.91;6151482;23;20022;-89
2023/06/26 11:32:35;;;;;;;0.55;0.55;;;;;;;31.16;35.57;99820.94;6125316;23;20014;-89
2023/06/26 11:35:00;;;;;;;0.70;0.70;;;;;;;31.23;34.34;99822.94;6124044;23;20086;-89
2023/06/26 11:37:26;;;;;;;1.02;0.90;;;;;;;31.39;34.15;99823.56;6125499;23;20088;-90
2023/06/26 11:39:52;;;;;;;0.88;0.50;;;;;;;31.53;34.40;99815.41;6124503;23;20017;-90
2023/06/26 11:42:18;;;;;;;0.70;0.63;;;;;;;31.30;35.14;99833.59;6100429;23;20096;-90
2023/06/26 11:44:44;;;;;;;1.10;0.90;;;;;;;31.07;35.77;99826.53;6100634;23;20484;-89
2023/06/26 11:47:28;;;;;;;0.57;0.55;;;;;;;31.19;34.83;99825.47;6124741;23;20017;-90
2023/06/26 11:49:53;;;;;;;0.90;0.80;;;;;;;31.03;34.94;99826.94;6075878;23;20013;-89
2023/06/26 11:52:19;;;;;;;0.40;0.40;;;;;;;30.54;35.75;99799.03;6100466;23;20045;-89
2023/06/26 11:54:45;;;;;;;0.82;0.82;;;;;;;30.22;35.93;99819.03;6124827;23;20005;-89
2023/06/26 11:57:15;;;;;;;0.98;0.68;;;;;;;30.12;36.76;99824.63;6100095;23;20022;-89
2023/06/26 11:59:41;;;;;;;0.80;0.60;;;;;;;30.09;36.43;99828.59;6076442;23;20022;-89
2023/06/26 12:02:10;;;;;;;0.50;0.50;;;;;;;30.28;37.18;99813.84;6124814;23;20211;-90
2023/06/26 12:04:41;;;;;;;0.57;0.47;;;;;;;30.90;35.72;99816.50;6075506;23;20089;-90
2023/06/26 12:07:08;;;;;;;0.60;0.60;;;;;;;30.73;35.40;99821.44;6100483;23;20017;-89
2023/06/26 12:09:38;;;;;;;1.13;1.13;;;;;;;30.32;35.85;99823.56;6099952;23;20126;-89
2023/06/26 12:12:04;;;;;;;0.40;0.40;;;;;;;30.09;36.67;99817.94;6099623;23;20021;-89
2023/06/26 12:14:30;;;;;;;1.73;0.95;;;;;;;30.23;37.07;99809.88;6100708;23;20033;-89
2023/06/26 12:17:04;;;;;;;0.80;0.55;;;;;;;30.51;35.40;99788.75;6150891;23;20017;-89
2023/06/26 12:19:29;;;;;;;0.70;0.63;;;;;;;30.85;34.56;99814.66;6100129;23;20047;-90
2023/06/26 12:21:56;;;;;;;1.38;0.70;;;;;;;30.74;36.49;99802.91;6124547;23;20013;-90
2023/06/26 12:24:23;;;;;;;0.43;0.43;;;;;;;31.01;36.63;99795.28;6099761;23;20056;-90
2023/06/26 12:26:54;;;;;;;1.45;0.95;;;;;;;31.57;35.81;99799.34;6099599;23;20017;-90
2023/06/26 12:29:20;;;;;;;0.47;0.47;;;;;;;32.01;35.04;99796.53;6076797;23;20020;-89
2023/06/26 12:31:49;;;;;;;0.95;0.68;;;;;;;32.25;32.19;99804.28;6100287;23;20029;-90
2023/06/26 12:34:20;;;;;;;0.50;0.50;;;;;;;32.27;33.13;99801.56;6099884;23;20586;-90
2023/06/26 12:36:49;;;;;;;0.60;0.60;;;;;;;32.09;31.65;99762.78;6124836;23;20385;-90
2023/06/26 12:39:21;;;;;;;0.57;0.55;;;;;;;32.30;31.13;99776.66;6076014;23;20005;-89
2023/06/26 12:41:55;;;;;;;1.42;1.10;;;;;;;32.17;30.97;99780.66;6124420;23;20014;-90
2023/06/26 12:44:28;;;;;;;1.33;1.23;;;;;;;32.09;32.23;99794.34;6076223;23;20072;-90
2023/06/26 12:46:56;;;;;;;0.73;0.73;;;;;;;32.12;31.87;99784.56;6124564;23;20492;-89
2023/06/26 12:49:35;;;;;;;1.13;1.02;;;;;;;32.05;31.43;99785.38;6099632;23;20057;-90
2023/06/26 12:52:04;;;;;;;0.50;0.50;;;;;;;31.83;31.68;99786.41;6124361;23;20105;-90
2023/06/26 12:54:30;;;;;;;0.73;0.73;;;;;;;31.82;31.99;99785.69;6100096;23;20411;-90
2023/06/26 12:56:56;;;;;;;0.50;0.50;;;;;;;32.23;31.66;99784.00;6123963;23;20014;-89
2023/06/26 12:59:21;;;;;;;0.40;0.40;;;;;;;32.40;31.84;99780.31;6124874;23;20041;-89
2023/06/26 13:01:47;;;;;;;0.77;0.63;;;;;;;32.55;31.67;99785.09;6124746;23;20009;-90
2023/06/26 13:04:13;;;;;;;0.82;0.63;;;;;;;32.64;31.81;99793.00;6123948;23;20014;-90
2023/06/26 13:06:39;;;;;;;1.10;1.00;;;;;;;32.69;31.85;99766.13;6100356;23;20059;-90
2023/06/26 13:09:05;;;;;;;0.50;0.50;;;;;;;32.38;30.63;99777.31;6150164;23;20010;-90
2023/06/26 13:11:31;;;;;;;0.85;0.52;;;;;;;32.51;31.87;99785.53;6099742;23;20001;-90